CheckWX is a tool to help pilots better visualize weather data.  It is not intended as a substitute for an official pre-flight weather briefing.

03:16:03 UTC

LEMG METAR
Málaga Airport
Málaga, Spain
Current

16 mins ago

LEMG 180300Z 29004KT CAVOK 20/19 Q1015 NOSIG
Observed
Sep-18 @ 03:00 UTC
Wind
  • 290° at 4 KTS
Visibility
10,000+ meters
Flight Rules
VFR
Cloud Levels
  • Clear skies
Temperature
20°C / 68°F
Dewpoint
19°C / 66°F
Humidity
94%
Altimeter
29.97" Hg
Pressure
1014.92 hPa
Previous

46 mins ago

LEMG 180230Z 30005KT CAVOK 20/19 Q1015 NOSIG
Observed
Sep-18 @ 02:30 UTC
Wind
  • 300° at 5 KTS
Visibility
10,000+ meters
Flight Rules
VFR
Cloud Levels
  • Clear skies
Temperature
20°C / 68°F
Dewpoint
19°C / 66°F
Humidity
94%
Altimeter
29.97" Hg
Pressure
1014.92 hPa
Previous

1 hour ago

LEMG 180200Z 30005KT CAVOK 20/19 Q1015 NOSIG
Observed
Sep-18 @ 02:00 UTC
Wind
  • 300° at 5 KTS
Visibility
10,000+ meters
Flight Rules
VFR
Cloud Levels
  • Clear skies
Temperature
20°C / 68°F
Dewpoint
19°C / 66°F
Humidity
94%
Altimeter
29.97" Hg
Pressure
1014.92 hPa